sensor_id;sensor_type;location;lat;lon;timestamp;P1;durP1;ratioP1;P2;durP2;ratioP2
17524;SDS011;40431;52.198;9.902;2023-08-01T00:01:35;2.50;;;1.50;;
17524;SDS011;40431;52.198;9.902;2023-08-01T00:04:01;1.60;;;1.50;;
17524;SDS011;40431;52.198;9.902;2023-08-01T00:06:28;1.57;;;1.43;;
17524;SDS011;40431;52.198;9.902;2023-08-01T00:08:54;1.53;;;1.43;;
17524;SDS011;40431;52.198;9.902;2023-08-01T00:11:22;2.53;;;1.60;;
17524;SDS011;40431;52.198;9.902;2023-08-01T00:13:48;1.93;;;1.83;;
17524;SDS011;40431;52.198;9.902;2023-08-01T00:16:15;2.13;;;1.50;;
17524;SDS011;40431;52.198;9.902;2023-08-01T00:18:41;2.07;;;1.60;;
17524;SDS011;40431;52.198;9.902;2023-08-01T00:21:08;2.30;;;1.33;;
17524;SDS011;40431;52.198;9.902;2023-08-01T00:23:36;2.73;;;1.73;;
17524;SDS011;40431;52.198;9.902;2023-08-01T00:26:02;1.60;;;1.30;;
17524;SDS011;40431;52.198;9.902;2023-08-01T00:28:30;1.37;;;1.20;;
17524;SDS011;40431;52.198;9.902;2023-08-01T00:31:04;1.97;;;1.13;;
17524;SDS011;40431;52.198;9.902;2023-08-01T00:33:30;3.70;;;1.40;;
17524;SDS011;40431;52.198;9.902;2023-08-01T00:35:57;1.77;;;1.20;;
17524;SDS011;40431;52.198;9.902;2023-08-01T00:38:23;1.43;;;1.33;;
17524;SDS011;40431;52.198;9.902;2023-08-01T00:40:50;1.00;;;1.00;;
17524;SDS011;40431;52.198;9.902;2023-08-01T00:43:16;1.97;;;1.30;;
17524;SDS011;40431;52.198;9.902;2023-08-01T00:45:44;4.33;;;1.43;;
17524;SDS011;40431;52.198;9.902;2023-08-01T00:48:11;2.20;;;1.40;;
17524;SDS011;40431;52.198;9.902;2023-08-01T00:50:38;1.20;;;1.10;;
17524;SDS011;40431;52.198;9.902;2023-08-01T00:53:04;3.70;;;1.33;;
17524;SDS011;40431;52.198;9.902;2023-08-01T00:55:31;1.83;;;1.20;;
17524;SDS011;40431;52.198;9.902;2023-08-01T00:57:58;2.37;;;1.30;;
17524;SDS011;40431;52.198;9.902;2023-08-01T01:00:25;2.13;;;1.27;;
17524;SDS011;40431;52.198;9.902;2023-08-01T01:02:53;1.27;;;1.10;;
17524;SDS011;40431;52.198;9.902;2023-08-01T01:05:20;1.10;;;1.10;;
17524;SDS011;40431;52.198;9.902;2023-08-01T01:07:48;1.40;;;1.00;;
17524;SDS011;40431;52.198;9.902;2023-08-01T01:10:15;2.03;;;1.00;;
17524;SDS011;40431;52.198;9.902;2023-08-01T01:12:42;1.00;;;1.00;;
17524;SDS011;40431;52.198;9.902;2023-08-01T01:15:08;1.93;;;1.30;;
17524;SDS011;40431;52.198;9.902;2023-08-01T01:17:35;1.00;;;1.00;;
17524;SDS011;40431;52.198;9.902;2023-08-01T01:20:03;1.90;;;1.10;;
17524;SDS011;40431;52.198;9.902;2023-08-01T01:22:31;2.93;;;1.10;;
17524;SDS011;40431;52.198;9.902;2023-08-01T01:24:59;1.10;;;1.00;;
17524;SDS011;40431;52.198;9.902;2023-08-01T01:27:26;5.03;;;1.27;;
17524;SDS011;40431;52.198;9.902;2023-08-01T01:29:54;2.87;;;1.20;;
17524;SDS011;40431;52.198;9.902;2023-08-01T01:32:21;3.80;;;1.20;;
17524;SDS011;40431;52.198;9.902;2023-08-01T01:34:48;1.70;;;1.30;;
17524;SDS011;40431;52.198;9.902;2023-08-01T01:37:14;1.97;;;1.00;;
17524;SDS011;40431;52.198;9.902;2023-08-01T01:39:42;0.90;;;0.90;;
17524;SDS011;40431;52.198;9.902;2023-08-01T01:42:08;0.93;;;0.80;;
17524;SDS011;40431;52.198;9.902;2023-08-01T01:44:35;2.37;;;1.23;;
17524;SDS011;40431;52.198;9.902;2023-08-01T01:47:01;1.03;;;0.93;;
17524;SDS011;40431;52.198;9.902;2023-08-01T01:49:27;1.77;;;0.80;;
17524;SDS011;40431;52.198;9.902;2023-08-01T01:51:54;0.80;;;0.80;;
17524;SDS011;40431;52.198;9.902;2023-08-01T01:54:21;0.80;;;0.80;;
17524;SDS011;40431;52.198;9.902;2023-08-01T01:56:48;0.80;;;0.80;;
17524;SDS011;40431;52.198;9.902;2023-08-01T01:59:15;0.70;;;0.70;;
17524;SDS011;40431;52.198;9.902;2023-08-01T02:01:41;1.53;;;0.80;;
17524;SDS011;40431;52.198;9.902;2023-08-01T02:04:08;0.87;;;0.70;;
17524;SDS011;40431;52.198;9.902;2023-08-01T02:06:34;0.93;;;0.87;;
17524;SDS011;40431;52.198;9.902;2023-08-01T02:09:00;0.80;;;0.80;;
17524;SDS011;40431;52.198;9.902;2023-08-01T02:11:27;0.90;;;0.90;;
17524;SDS011;40431;52.198;9.902;2023-08-01T02:13:55;0.97;;;0.87;;
17524;SDS011;40431;52.198;9.902;2023-08-01T02:16:21;0.73;;;0.73;;
17524;SDS011;40431;52.198;9.902;2023-08-01T02:18:48;0.63;;;0.63;;
17524;SDS011;40431;52.198;9.902;2023-08-01T02:21:14;1.43;;;0.93;;
17524;SDS011;40431;52.198;9.902;2023-08-01T02:23:40;0.80;;;0.80;;
17524;SDS011;40431;52.198;9.902;2023-08-01T02:26:08;1.40;;;0.67;;
17524;SDS011;40431;52.198;9.902;2023-08-01T02:28:34;0.70;;;0.70;;
17524;SDS011;40431;52.198;9.902;2023-08-01T02:31:02;0.70;;;0.70;;
17524;SDS011;40431;52.198;9.902;2023-08-01T02:33:28;0.60;;;0.60;;
17524;SDS011;40431;52.198;9.902;2023-08-01T02:35:55;1.73;;;0.80;;
17524;SDS011;40431;52.198;9.902;2023-08-01T02:38:21;2.27;;;0.80;;
17524;SDS011;40431;52.198;9.902;2023-08-01T02:40:47;1.93;;;0.83;;
17524;SDS011;40431;52.198;9.902;2023-08-01T02:43:14;1.87;;;0.83;;
17524;SDS011;40431;52.198;9.902;2023-08-01T02:45:41;1.70;;;1.00;;
17524;SDS011;40431;52.198;9.902;2023-08-01T02:48:08;2.00;;;1.00;;
17524;SDS011;40431;52.198;9.902;2023-08-01T02:50:35;1.73;;;0.93;;
17524;SDS011;40431;52.198;9.902;2023-08-01T02:53:01;2.67;;;0.90;;
17524;SDS011;40431;52.198;9.902;2023-08-01T02:55:28;1.23;;;1.00;;
17524;SDS011;40431;52.198;9.902;2023-08-01T02:57:54;1.43;;;1.00;;
17524;SDS011;40431;52.198;9.902;2023-08-01T03:00:20;2.63;;;1.27;;
17524;SDS011;40431;52.198;9.902;2023-08-01T03:02:47;1.17;;;1.17;;
17524;SDS011;40431;52.198;9.902;2023-08-01T03:05:15;1.97;;;0.90;;
17524;SDS011;40431;52.198;9.902;2023-08-01T03:07:42;1.47;;;0.80;;
17524;SDS011;40431;52.198;9.902;2023-08-01T03:10:08;0.80;;;0.80;;
17524;SDS011;40431;52.198;9.902;2023-08-01T03:12:36;0.80;;;0.80;;
17524;SDS011;40431;52.198;9.902;2023-08-01T03:15:03;0.87;;;0.87;;
17524;SDS011;40431;52.198;9.902;2023-08-01T03:17:29;0.87;;;0.70;;
17524;SDS011;40431;52.198;9.902;2023-08-01T03:19:56;0.83;;;0.70;;
17524;SDS011;40431;52.198;9.902;2023-08-01T03:22:24;0.97;;;0.70;;
17524;SDS011;40431;52.198;9.902;2023-08-01T03:24:50;0.73;;;0.73;;
17524;SDS011;40431;52.198;9.902;2023-08-01T03:27:17;4.53;;;0.80;;
17524;SDS011;40431;52.198;9.902;2023-08-01T03:29:43;0.60;;;0.60;;
17524;SDS011;40431;52.198;9.902;2023-08-01T03:32:10;0.63;;;0.60;;
17524;SDS011;40431;52.198;9.902;2023-08-01T03:34:36;1.00;;;0.70;;
17524;SDS011;40431;52.198;9.902;2023-08-01T03:37:04;0.93;;;0.90;;
17524;SDS011;40431;52.198;9.902;2023-08-01T03:39:32;1.37;;;0.83;;
17524;SDS011;40431;52.198;9.902;2023-08-01T03:41:58;1.17;;;0.80;;
17524;SDS011;40431;52.198;9.902;2023-08-01T03:44:24;1.30;;;0.73;;
17524;SDS011;40431;52.198;9.902;2023-08-01T03:46:51;2.10;;;0.90;;
17524;SDS011;40431;52.198;9.902;2023-08-01T03:49:17;0.60;;;0.60;;
17524;SDS011;40431;52.198;9.902;2023-08-01T03:51:43;0.60;;;0.60;;
17524;SDS011;40431;52.198;9.902;2023-08-01T03:54:10;0.60;;;0.60;;
17524;SDS011;40431;52.198;9.902;2023-08-01T03:56:38;0.70;;;0.70;;
17524;SDS011;40431;52.198;9.902;2023-08-01T03:59:07;1.00;;;0.70;;
17524;SDS011;40431;52.198;9.902;2023-08-01T04:01:34;2.20;;;0.50;;
17524;SDS011;40431;52.198;9.902;2023-08-01T04:04:00;0.60;;;0.60;;
17524;SDS011;40431;52.198;9.902;2023-08-01T04:06:27;0.73;;;0.73;;
17524;SDS011;40431;52.198;9.902;2023-08-01T04:08:53;1.07;;;0.70;;
17524;SDS011;40431;52.198;9.902;2023-08-01T04:11:21;0.70;;;0.70;;
17524;SDS011;40431;52.198;9.902;2023-08-01T04:13:49;0.80;;;0.80;;
17524;SDS011;40431;52.198;9.902;2023-08-01T04:16:15;0.50;;;0.50;;
17524;SDS011;40431;52.198;9.902;2023-08-01T04:18:42;0.70;;;0.70;;
17524;SDS011;40431;52.198;9.902;2023-08-01T04:21:08;1.03;;;0.77;;
17524;SDS011;40431;52.198;9.902;2023-08-01T04:23:34;1.13;;;0.67;;
17524;SDS011;40431;52.198;9.902;2023-08-01T04:26:01;1.00;;;0.60;;
17524;SDS011;40431;52.198;9.902;2023-08-01T04:28:31;0.70;;;0.70;;
17524;SDS011;40431;52.198;9.902;2023-08-01T04:30:58;0.77;;;0.77;;
17524;SDS011;40431;52.198;9.902;2023-08-01T04:33:25;0.70;;;0.70;;
17524;SDS011;40431;52.198;9.902;2023-08-01T04:35:51;0.70;;;0.70;;
17524;SDS011;40431;52.198;9.902;2023-08-01T04:38:18;0.80;;;0.80;;
17524;SDS011;40431;52.198;9.902;2023-08-01T04:40:44;0.80;;;0.80;;
17524;SDS011;40431;52.198;9.902;2023-08-01T04:43:11;1.00;;;1.00;;
17524;SDS011;40431;52.198;9.902;2023-08-01T04:45:38;0.90;;;0.87;;
17524;SDS011;40431;52.198;9.902;2023-08-01T04:48:05;0.70;;;0.70;;
17524;SDS011;40431;52.198;9.902;2023-08-01T04:50:32;0.63;;;0.63;;
17524;SDS011;40431;52.198;9.902;2023-08-01T04:52:58;0.80;;;0.80;;
17524;SDS011;40431;52.198;9.902;2023-08-01T04:55:24;0.70;;;0.70;;
17524;SDS011;40431;52.198;9.902;2023-08-01T04:57:51;1.07;;;0.80;;
17524;SDS011;40431;52.198;9.902;2023-08-01T05:00:17;1.30;;;0.80;;
17524;SDS011;40431;52.198;9.902;2023-08-01T05:02:44;0.70;;;0.70;;
17524;SDS011;40431;52.198;9.902;2023-08-01T05:05:11;0.70;;;0.70;;
17524;SDS011;40431;52.198;9.902;2023-08-01T05:07:38;1.87;;;0.90;;
17524;SDS011;40431;52.198;9.902;2023-08-01T05:10:04;0.70;;;0.70;;
17524;SDS011;40431;52.198;9.902;2023-08-01T05:12:31;1.33;;;0.60;;
17524;SDS011;40431;52.198;9.902;2023-08-01T05:14:58;1.90;;;0.80;;
17524;SDS011;40431;52.198;9.902;2023-08-01T05:17:24;0.67;;;0.67;;
17524;SDS011;40431;52.198;9.902;2023-08-01T05:19:50;0.90;;;0.90;;
17524;SDS011;40431;52.198;9.902;2023-08-01T05:22:18;1.63;;;1.00;;
17524;SDS011;40431;52.198;9.902;2023-08-01T05:24:44;0.80;;;0.80;;
17524;SDS011;40431;52.198;9.902;2023-08-01T05:27:11;0.80;;;0.80;;
17524;SDS011;40431;52.198;9.902;2023-08-01T05:29:37;1.77;;;1.10;;
17524;SDS011;40431;52.198;9.902;2023-08-01T05:32:04;0.90;;;0.90;;
17524;SDS011;40431;52.198;9.902;2023-08-01T05:34:30;0.90;;;0.90;;
17524;SDS011;40431;52.198;9.902;2023-08-01T05:36:57;1.20;;;1.10;;
17524;SDS011;40431;52.198;9.902;2023-08-01T05:39:24;1.13;;;1.10;;
17524;SDS011;40431;52.198;9.902;2023-08-01T05:41:51;1.33;;;1.20;;
17524;SDS011;40431;52.198;9.902;2023-08-01T05:44:17;1.20;;;1.10;;
17524;SDS011;40431;52.198;9.902;2023-08-01T05:46:44;1.10;;;1.07;;
17524;SDS011;40431;52.198;9.902;2023-08-01T05:49:10;1.50;;;1.40;;
17524;SDS011;40431;52.198;9.902;2023-08-01T05:51:36;2.63;;;0.93;;
17524;SDS011;40431;52.198;9.902;2023-08-01T05:54:03;1.37;;;1.27;;
17524;SDS011;40431;52.198;9.902;2023-08-01T05:56:31;1.30;;;1.20;;
17524;SDS011;40431;52.198;9.902;2023-08-01T05:58:57;1.40;;;1.30;;
17524;SDS011;40431;52.198;9.902;2023-08-01T06:01:24;1.63;;;1.50;;
17524;SDS011;40431;52.198;9.902;2023-08-01T06:03:50;1.40;;;1.30;;
17524;SDS011;40431;52.198;9.902;2023-08-01T06:06:17;1.50;;;1.40;;
17524;SDS011;40431;52.198;9.902;2023-08-01T06:08:43;2.90;;;1.60;;
17524;SDS011;40431;52.198;9.902;2023-08-01T06:11:10;1.67;;;1.50;;
17524;SDS011;40431;52.198;9.902;2023-08-01T06:13:37;1.87;;;1.60;;
17524;SDS011;40431;52.198;9.902;2023-08-01T06:16:04;1.57;;;1.40;;
17524;SDS011;40431;52.198;9.902;2023-08-01T06:18:30;2.07;;;1.43;;
17524;SDS011;40431;52.198;9.902;2023-08-01T06:20:57;1.33;;;1.17;;
17524;SDS011;40431;52.198;9.902;2023-08-01T06:23:23;1.70;;;1.50;;
17524;SDS011;40431;52.198;9.902;2023-08-01T06:25:49;1.97;;;1.40;;
17524;SDS011;40431;52.198;9.902;2023-08-01T06:28:16;2.73;;;1.40;;
17524;SDS011;40431;52.198;9.902;2023-08-01T06:30:44;1.20;;;1.20;;
17524;SDS011;40431;52.198;9.902;2023-08-01T06:33:11;2.00;;;1.20;;
17524;SDS011;40431;52.198;9.902;2023-08-01T06:35:37;1.37;;;1.27;;
17524;SDS011;40431;52.198;9.902;2023-08-01T06:38:04;1.70;;;1.20;;
17524;SDS011;40431;52.198;9.902;2023-08-01T06:40:30;1.17;;;1.17;;
17524;SDS011;40431;52.198;9.902;2023-08-01T06:42:56;1.23;;;1.23;;
17524;SDS011;40431;52.198;9.902;2023-08-01T06:45:23;2.43;;;1.20;;
17524;SDS011;40431;52.198;9.902;2023-08-01T06:47:50;1.40;;;1.10;;
17524;SDS011;40431;52.198;9.902;2023-08-01T06:50:17;1.50;;;1.40;;
17524;SDS011;40431;52.198;9.902;2023-08-01T06:52:43;4.10;;;1.43;;
17524;SDS011;40431;52.198;9.902;2023-08-01T06:55:09;1.83;;;1.37;;
17524;SDS011;40431;52.198;9.902;2023-08-01T06:57:36;1.20;;;1.10;;
17524;SDS011;40431;52.198;9.902;2023-08-01T07:00:03;2.57;;;1.70;;
17524;SDS011;40431;52.198;9.902;2023-08-01T07:02:30;1.60;;;1.50;;
17524;SDS011;40431;52.198;9.902;2023-08-01T07:04:57;1.97;;;1.50;;
17524;SDS011;40431;52.198;9.902;2023-08-01T07:07:24;1.60;;;1.50;;
17524;SDS011;40431;52.198;9.902;2023-08-01T07:09:50;1.93;;;1.73;;
17524;SDS011;40431;52.198;9.902;2023-08-01T07:12:17;2.03;;;1.87;;
17524;SDS011;40431;52.198;9.902;2023-08-01T07:14:43;2.90;;;2.10;;
17524;SDS011;40431;52.198;9.902;2023-08-01T07:17:09;2.73;;;2.53;;
17524;SDS011;40431;52.198;9.902;2023-08-01T07:19:36;3.60;;;2.53;;
17524;SDS011;40431;52.198;9.902;2023-08-01T07:22:03;4.00;;;2.60;;
17524;SDS011;40431;52.198;9.902;2023-08-01T07:24:30;2.90;;;2.70;;
17524;SDS011;40431;52.198;9.902;2023-08-01T07:26:56;4.57;;;2.97;;
17524;SDS011;40431;52.198;9.902;2023-08-01T07:29:23;4.43;;;3.40;;
17524;SDS011;40431;52.198;9.902;2023-08-01T07:31:49;4.90;;;3.77;;
17524;SDS011;40431;52.198;9.902;2023-08-01T07:34:15;4.00;;;3.67;;
17524;SDS011;40431;52.198;9.902;2023-08-01T07:36:42;3.70;;;3.40;;
17524;SDS011;40431;52.198;9.902;2023-08-01T07:39:10;5.03;;;4.03;;
17524;SDS011;40431;52.198;9.902;2023-08-01T07:41:36;4.20;;;3.80;;
17524;SDS011;40431;52.198;9.902;2023-08-01T07:44:02;4.30;;;3.90;;
17524;SDS011;40431;52.198;9.902;2023-08-01T07:46:29;4.40;;;3.57;;
17524;SDS011;40431;52.198;9.902;2023-08-01T07:48:55;4.63;;;3.67;;
17524;SDS011;40431;52.198;9.902;2023-08-01T07:51:22;4.43;;;4.00;;
17524;SDS011;40431;52.198;9.902;2023-08-01T07:53:49;3.73;;;3.30;;
17524;SDS011;40431;52.198;9.902;2023-08-01T07:56:18;3.50;;;3.20;;
17524;SDS011;40431;52.198;9.902;2023-08-01T07:58:44;4.27;;;3.30;;
17524;SDS011;40431;52.198;9.902;2023-08-01T08:01:11;4.80;;;4.10;;
17524;SDS011;40431;52.198;9.902;2023-08-01T08:03:37;5.87;;;3.67;;
17524;SDS011;40431;52.198;9.902;2023-08-01T08:06:04;6.60;;;4.07;;
17524;SDS011;40431;52.198;9.902;2023-08-01T08:08:30;6.03;;;3.83;;
17524;SDS011;40431;52.198;9.902;2023-08-01T08:10:58;4.43;;;4.03;;
17524;SDS011;40431;52.198;9.902;2023-08-01T08:13:27;4.23;;;3.80;;
17524;SDS011;40431;52.198;9.902;2023-08-01T08:15:54;5.00;;;3.93;;
17524;SDS011;40431;52.198;9.902;2023-08-01T08:18:21;5.33;;;4.00;;
17524;SDS011;40431;52.198;9.902;2023-08-01T08:20:48;4.00;;;3.70;;
17524;SDS011;40431;52.198;9.902;2023-08-01T08:23:14;5.37;;;4.30;;
17524;SDS011;40431;52.198;9.902;2023-08-01T08:25:41;4.70;;;4.23;;
17524;SDS011;40431;52.198;9.902;2023-08-01T08:28:09;5.73;;;4.20;;
17524;SDS011;40431;52.198;9.902;2023-08-01T08:30:38;5.27;;;3.80;;
17524;SDS011;40431;52.198;9.902;2023-08-01T08:33:05;4.93;;;3.80;;
17524;SDS011;40431;52.198;9.902;2023-08-01T08:35:32;5.80;;;4.10;;
17524;SDS011;40431;52.198;9.902;2023-08-01T08:37:59;5.00;;;4.20;;
17524;SDS011;40431;52.198;9.902;2023-08-01T08:40:27;4.37;;;3.47;;
17524;SDS011;40431;52.198;9.902;2023-08-01T08:42:54;6.40;;;4.10;;
17524;SDS011;40431;52.198;9.902;2023-08-01T08:45:24;8.00;;;4.03;;
17524;SDS011;40431;52.198;9.902;2023-08-01T08:47:53;6.00;;;4.40;;
17524;SDS011;40431;52.198;9.902;2023-08-01T08:50:22;5.13;;;3.87;;
17524;SDS011;40431;52.198;9.902;2023-08-01T08:52:50;4.40;;;3.93;;
17524;SDS011;40431;52.198;9.902;2023-08-01T08:55:16;4.80;;;3.93;;
17524;SDS011;40431;52.198;9.902;2023-08-01T08:57:46;4.10;;;3.60;;
17524;SDS011;40431;52.198;9.902;2023-08-01T09:00:15;4.67;;;3.53;;
17524;SDS011;40431;52.198;9.902;2023-08-01T09:02:43;5.10;;;3.90;;
17524;SDS011;40431;52.198;9.902;2023-08-01T09:05:10;5.10;;;3.53;;
17524;SDS011;40431;52.198;9.902;2023-08-01T09:07:39;6.17;;;3.70;;
17524;SDS011;40431;52.198;9.902;2023-08-01T09:10:08;4.67;;;3.53;;
17524;SDS011;40431;52.198;9.902;2023-08-01T09:12:35;4.20;;;3.20;;
17524;SDS011;40431;52.198;9.902;2023-08-01T09:15:01;3.60;;;3.13;;
17524;SDS011;40431;52.198;9.902;2023-08-01T09:17:28;3.27;;;2.97;;
17524;SDS011;40431;52.198;9.902;2023-08-01T09:19:55;3.50;;;3.00;;
17524;SDS011;40431;52.198;9.902;2023-08-01T09:22:23;4.83;;;2.93;;
17524;SDS011;40431;52.198;9.902;2023-08-01T09:24:50;8.60;;;2.50;;
17524;SDS011;40431;52.198;9.902;2023-08-01T09:27:18;3.87;;;2.80;;
17524;SDS011;40431;52.198;9.902;2023-08-01T09:29:47;4.23;;;2.50;;
17524;SDS011;40431;52.198;9.902;2023-08-01T09:32:13;3.37;;;2.73;;
17524;SDS011;40431;52.198;9.902;2023-08-01T09:34:40;2.67;;;2.47;;
17524;SDS011;40431;52.198;9.902;2023-08-01T09:37:08;4.17;;;2.70;;
17524;SDS011;40431;52.198;9.902;2023-08-01T09:39:35;3.83;;;2.83;;
17524;SDS011;40431;52.198;9.902;2023-08-01T09:42:02;3.03;;;2.70;;
17524;SDS011;40431;52.198;9.902;2023-08-01T09:44:29;2.60;;;2.40;;
17524;SDS011;40431;52.198;9.902;2023-08-01T09:46:56;4.37;;;2.30;;
17524;SDS011;40431;52.198;9.902;2023-08-01T09:49:23;4.30;;;2.10;;
17524;SDS011;40431;52.198;9.902;2023-08-01T09:51:50;2.67;;;1.97;;
17524;SDS011;40431;52.198;9.902;2023-08-01T09:54:17;3.67;;;2.17;;
17524;SDS011;40431;52.198;9.902;2023-08-01T09:56:46;11.77;;;1.93;;
17524;SDS011;40431;52.198;9.902;2023-08-01T09:59:15;2.50;;;2.10;;
17524;SDS011;40431;52.198;9.902;2023-08-01T10:01:45;5.67;;;2.40;;
17524;SDS011;40431;52.198;9.902;2023-08-01T10:04:15;2.43;;;2.10;;
17524;SDS011;40431;52.198;9.902;2023-08-01T10:06:43;3.00;;;2.30;;
17524;SDS011;40431;52.198;9.902;2023-08-01T10:09:15;3.77;;;2.00;;
17524;SDS011;40431;52.198;9.902;2023-08-01T10:11:43;4.50;;;2.37;;
17524;SDS011;40431;52.198;9.902;2023-08-01T10:14:11;2.70;;;1.93;;
17524;SDS011;40431;52.198;9.902;2023-08-01T10:16:38;3.77;;;2.20;;
17524;SDS011;40431;52.198;9.902;2023-08-01T10:19:07;4.27;;;2.40;;
17524;SDS011;40431;52.198;9.902;2023-08-01T10:21:37;4.17;;;2.50;;
17524;SDS011;40431;52.198;9.902;2023-08-01T10:24:03;2.33;;;1.73;;
17524;SDS011;40431;52.198;9.902;2023-08-01T10:26:32;2.67;;;2.00;;
17524;SDS011;40431;52.198;9.902;2023-08-01T10:28:59;2.30;;;1.90;;
17524;SDS011;40431;52.198;9.902;2023-08-01T10:31:28;3.77;;;1.83;;
17524;SDS011;40431;52.198;9.902;2023-08-01T10:34:03;2.53;;;1.93;;
17524;SDS011;40431;52.198;9.902;2023-08-01T10:36:30;3.43;;;1.93;;
17524;SDS011;40431;52.198;9.902;2023-08-01T10:38:59;3.17;;;2.03;;
17524;SDS011;40431;52.198;9.902;2023-08-01T10:41:28;2.17;;;1.80;;
17524;SDS011;40431;52.198;9.902;2023-08-01T10:44:05;2.50;;;1.70;;
17524;SDS011;40431;52.198;9.902;2023-08-01T10:46:46;3.30;;;2.20;;
17524;SDS011;40431;52.198;9.902;2023-08-01T10:49:14;2.60;;;1.70;;
17524;SDS011;40431;52.198;9.902;2023-08-01T10:51:41;2.87;;;1.90;;
17524;SDS011;40431;52.198;9.902;2023-08-01T10:54:17;2.47;;;1.87;;
17524;SDS011;40431;52.198;9.902;2023-08-01T10:56:45;4.90;;;1.80;;
17524;SDS011;40431;52.198;9.902;2023-08-01T10:59:13;3.60;;;1.63;;
17524;SDS011;40431;52.198;9.902;2023-08-01T11:01:43;2.37;;;1.63;;
17524;SDS011;40431;52.198;9.902;2023-08-01T11:04:14;2.03;;;1.37;;
17524;SDS011;40431;52.198;9.902;2023-08-01T11:06:45;2.23;;;1.63;;
17524;SDS011;40431;52.198;9.902;2023-08-01T11:09:16;2.07;;;1.50;;
17524;SDS011;40431;52.198;9.902;2023-08-01T11:11:44;2.37;;;1.80;;
17524;SDS011;40431;52.198;9.902;2023-08-01T11:14:11;2.00;;;1.63;;
17524;SDS011;40431;52.198;9.902;2023-08-01T11:16:39;2.40;;;1.87;;
17524;SDS011;40431;52.198;9.902;2023-08-01T11:19:06;2.37;;;1.90;;
17524;SDS011;40431;52.198;9.902;2023-08-01T11:21:34;2.73;;;1.90;;
17524;SDS011;40431;52.198;9.902;2023-08-01T11:24:05;1.80;;;1.70;;
17524;SDS011;40431;52.198;9.902;2023-08-01T11:26:32;2.73;;;1.93;;
17524;SDS011;40431;52.198;9.902;2023-08-01T11:29:00;2.40;;;1.60;;
17524;SDS011;40431;52.198;9.902;2023-08-01T11:31:28;2.67;;;1.80;;
17524;SDS011;40431;52.198;9.902;2023-08-01T11:33:56;2.90;;;1.77;;
17524;SDS011;40431;52.198;9.902;2023-08-01T11:36:23;2.07;;;1.73;;
17524;SDS011;40431;52.198;9.902;2023-08-01T11:38:53;2.37;;;1.60;;
17524;SDS011;40431;52.198;9.902;2023-08-01T11:41:22;2.30;;;1.67;;
17524;SDS011;40431;52.198;9.902;2023-08-01T11:43:49;5.70;;;1.60;;
17524;SDS011;40431;52.198;9.902;2023-08-01T11:46:16;1.80;;;1.70;;
17524;SDS011;40431;52.198;9.902;2023-08-01T11:48:44;3.00;;;1.70;;
17524;SDS011;40431;52.198;9.902;2023-08-01T11:51:11;2.57;;;2.17;;
17524;SDS011;40431;52.198;9.902;2023-08-01T11:53:38;2.30;;;2.07;;
17524;SDS011;40431;52.198;9.902;2023-08-01T11:56:06;2.13;;;1.80;;
17524;SDS011;40431;52.198;9.902;2023-08-01T11:58:33;3.10;;;2.13;;
17524;SDS011;40431;52.198;9.902;2023-08-01T12:01:04;3.43;;;2.10;;
17524;SDS011;40431;52.198;9.902;2023-08-01T12:03:31;2.43;;;1.80;;
17524;SDS011;40431;52.198;9.902;2023-08-01T12:06:04;2.87;;;2.10;;
17524;SDS011;40431;52.198;9.902;2023-08-01T12:08:32;2.40;;;2.20;;
17524;SDS011;40431;52.198;9.902;2023-08-01T12:10:59;2.47;;;1.60;;
17524;SDS011;40431;52.198;9.902;2023-08-01T12:13:28;3.20;;;2.03;;
17524;SDS011;40431;52.198;9.902;2023-08-01T12:15:56;2.80;;;2.07;;
17524;SDS011;40431;52.198;9.902;2023-08-01T12:18:23;1.87;;;1.77;;
17524;SDS011;40431;52.198;9.902;2023-08-01T12:20:51;2.50;;;2.30;;
17524;SDS011;40431;52.198;9.902;2023-08-01T12:23:17;3.03;;;2.40;;
17524;SDS011;40431;52.198;9.902;2023-08-01T12:25:44;2.60;;;2.10;;
17524;SDS011;40431;52.198;9.902;2023-08-01T12:28:10;2.80;;;2.30;;
17524;SDS011;40431;52.198;9.902;2023-08-01T12:30:40;3.47;;;2.47;;
17524;SDS011;40431;52.198;9.902;2023-08-01T12:33:07;4.57;;;2.93;;
17524;SDS011;40431;52.198;9.902;2023-08-01T12:35:33;3.40;;;3.10;;
17524;SDS011;40431;52.198;9.902;2023-08-01T12:38:00;3.30;;;2.93;;
17524;SDS011;40431;52.198;9.902;2023-08-01T12:40:26;3.87;;;2.80;;
17524;SDS011;40431;52.198;9.902;2023-08-01T12:42:53;3.80;;;3.40;;
17524;SDS011;40431;52.198;9.902;2023-08-01T12:45:19;3.07;;;2.57;;
17524;SDS011;40431;52.198;9.902;2023-08-01T12:47:48;6.27;;;2.83;;
17524;SDS011;40431;52.198;9.902;2023-08-01T12:50:15;3.53;;;2.93;;
17524;SDS011;40431;52.198;9.902;2023-08-01T12:52:41;5.03;;;2.37;;
17524;SDS011;40431;52.198;9.902;2023-08-01T12:55:08;2.67;;;2.27;;
17524;SDS011;40431;52.198;9.902;2023-08-01T12:57:34;3.00;;;2.60;;
17524;SDS011;40431;52.198;9.902;2023-08-01T13:00:00;3.10;;;2.80;;
17524;SDS011;40431;52.198;9.902;2023-08-01T13:02:27;7.43;;;2.57;;
17524;SDS011;40431;52.198;9.902;2023-08-01T13:04:55;2.70;;;2.20;;
17524;SDS011;40431;52.198;9.902;2023-08-01T13:07:21;3.33;;;1.87;;
17524;SDS011;40431;52.198;9.902;2023-08-01T13:09:48;2.33;;;2.20;;
17524;SDS011;40431;52.198;9.902;2023-08-01T13:12:14;2.33;;;2.20;;
17524;SDS011;40431;52.198;9.902;2023-08-01T13:14:41;2.10;;;2.00;;
17524;SDS011;40431;52.198;9.902;2023-08-01T13:17:07;5.67;;;1.77;;
17524;SDS011;40431;52.198;9.902;2023-08-01T13:19:33;2.67;;;1.90;;
17524;SDS011;40431;52.198;9.902;2023-08-01T13:22:01;3.53;;;1.87;;
17524;SDS011;40431;52.198;9.902;2023-08-01T13:24:29;1.40;;;1.30;;
17524;SDS011;40431;52.198;9.902;2023-08-01T13:26:55;1.83;;;1.50;;
17524;SDS011;40431;52.198;9.902;2023-08-01T13:29:21;2.77;;;1.90;;
17524;SDS011;40431;52.198;9.902;2023-08-01T13:31:48;2.70;;;1.90;;
17524;SDS011;40431;52.198;9.902;2023-08-01T13:34:14;2.20;;;1.83;;
17524;SDS011;40431;52.198;9.902;2023-08-01T13:36:42;4.20;;;1.60;;
17524;SDS011;40431;52.198;9.902;2023-08-01T13:39:10;3.83;;;1.83;;
17524;SDS011;40431;52.198;9.902;2023-08-01T13:41:36;2.57;;;2.00;;
17524;SDS011;40431;52.198;9.902;2023-08-01T13:44:02;2.40;;;2.20;;
17524;SDS011;40431;52.198;9.902;2023-08-01T13:46:29;4.87;;;2.43;;
17524;SDS011;40431;52.198;9.902;2023-08-01T13:48:56;3.23;;;2.50;;
17524;SDS011;40431;52.198;9.902;2023-08-01T13:51:22;2.30;;;2.10;;
17524;SDS011;40431;52.198;9.902;2023-08-01T13:53:49;2.87;;;2.60;;
17524;SDS011;40431;52.198;9.902;2023-08-01T13:56:17;2.67;;;2.20;;
17524;SDS011;40431;52.198;9.902;2023-08-01T13:58:43;2.67;;;2.33;;
17524;SDS011;40431;52.198;9.902;2023-08-01T14:01:09;4.83;;;2.80;;
17524;SDS011;40431;52.198;9.902;2023-08-01T14:03:37;3.30;;;2.73;;
17524;SDS011;40431;52.198;9.902;2023-08-01T14:06:05;3.50;;;3.03;;
17524;SDS011;40431;52.198;9.902;2023-08-01T14:08:31;3.60;;;3.30;;
17524;SDS011;40431;52.198;9.902;2023-08-01T14:10:58;3.33;;;3.07;;
17524;SDS011;40431;52.198;9.902;2023-08-01T14:13:25;3.40;;;3.10;;
17524;SDS011;40431;52.198;9.902;2023-08-01T14:15:52;3.83;;;2.97;;
17524;SDS011;40431;52.198;9.902;2023-08-01T14:18:18;3.40;;;2.00;;
17524;SDS011;40431;52.198;9.902;2023-08-01T14:20:45;2.83;;;2.13;;
17524;SDS011;40431;52.198;9.902;2023-08-01T14:23:11;2.53;;;1.63;;
17524;SDS011;40431;52.198;9.902;2023-08-01T14:25:38;2.10;;;1.40;;
17524;SDS011;40431;52.198;9.902;2023-08-01T14:28:04;3.13;;;1.33;;
17524;SDS011;40431;52.198;9.902;2023-08-01T14:30:32;2.63;;;1.57;;
17524;SDS011;40431;52.198;9.902;2023-08-01T14:32:59;1.50;;;1.33;;
17524;SDS011;40431;52.198;9.902;2023-08-01T14:35:26;2.97;;;1.40;;
17524;SDS011;40431;52.198;9.902;2023-08-01T14:37:53;1.97;;;1.37;;
17524;SDS011;40431;52.198;9.902;2023-08-01T14:40:20;1.60;;;1.50;;
17524;SDS011;40431;52.198;9.902;2023-08-01T14:42:46;1.33;;;1.20;;
17524;SDS011;40431;52.198;9.902;2023-08-01T14:45:13;2.23;;;1.50;;
17524;SDS011;40431;52.198;9.902;2023-08-01T14:47:41;1.80;;;1.57;;